sensor_id;sensor_type;location;lat;lon;timestamp;pressure;altitude;pressure_sealevel;temperature;humidity
71795;BME280;59641;45.188;5.712;2022-09-09T00:02:22;99145.53;;;23.94;45.17
71795;BME280;59641;45.188;5.712;2022-09-09T00:07:41;99147.78;;;23.92;45.29
71795;BME280;59641;45.188;5.712;2022-09-09T00:15:29;99154.38;;;23.91;45.27
71795;BME280;59641;45.188;5.712;2022-09-09T00:18:10;99155.00;;;23.88;45.10
71795;BME280;59641;45.188;5.712;2022-09-09T00:21:04;99154.34;;;23.82;45.15
71795;BME280;59641;45.188;5.712;2022-09-09T00:23:38;99157.06;;;23.82;45.43
71795;BME280;59641;45.188;5.712;2022-09-09T00:28:33;99153.03;;;23.79;45.53
71795;BME280;59641;45.188;5.712;2022-09-09T00:31:15;99144.63;;;23.76;45.03
71795;BME280;59641;45.188;5.712;2022-09-09T00:33:44;99136.72;;;23.74;45.25
71795;BME280;59641;45.188;5.712;2022-09-09T00:36:14;99151.53;;;23.73;45.04
71795;BME280;59641;45.188;5.712;2022-09-09T00:38:51;99144.72;;;23.71;44.74
71795;BME280;59641;45.188;5.712;2022-09-09T00:41:26;99146.34;;;23.72;45.04
71795;BME280;59641;45.188;5.712;2022-09-09T00:43:56;99131.03;;;23.71;45.03
71795;BME280;59641;45.188;5.712;2022-09-09T00:46:51;99140.88;;;23.72;45.46
71795;BME280;59641;45.188;5.712;2022-09-09T00:57:36;99145.28;;;23.59;45.81
71795;BME280;59641;45.188;5.712;2022-09-09T01:10:51;99133.56;;;23.45;46.06
71795;BME280;59641;45.188;5.712;2022-09-09T01:13:33;99137.75;;;23.42;46.28
71795;BME280;59641;45.188;5.712;2022-09-09T01:16:01;99139.19;;;23.39;46.30
71795;BME280;59641;45.188;5.712;2022-09-09T01:18:46;99137.06;;;23.36;46.21
71795;BME280;59641;45.188;5.712;2022-09-09T01:26:23;99137.38;;;23.35;46.68
71795;BME280;59641;45.188;5.712;2022-09-09T01:28:51;99132.69;;;23.35;47.28
71795;BME280;59641;45.188;5.712;2022-09-09T01:31:23;99129.16;;;23.35;46.82
71795;BME280;59641;45.188;5.712;2022-09-09T01:33:51;99134.97;;;23.33;46.83
71795;BME280;59641;45.188;5.712;2022-09-09T01:36:37;99135.56;;;23.30;47.22
71795;BME280;59641;45.188;5.712;2022-09-09T01:39:04;99136.38;;;23.31;47.03
71795;BME280;59641;45.188;5.712;2022-09-09T01:41:29;99143.78;;;23.30;47.42
71795;BME280;59641;45.188;5.712;2022-09-09T01:43:56;99140.06;;;23.26;47.35
71795;BME280;59641;45.188;5.712;2022-09-09T01:46:22;99136.81;;;23.24;47.30
71795;BME280;59641;45.188;5.712;2022-09-09T01:48:50;99146.44;;;23.22;47.45
71795;BME280;59641;45.188;5.712;2022-09-09T01:51:17;99144.00;;;23.20;47.76
71795;BME280;59641;45.188;5.712;2022-09-09T01:53:43;99151.94;;;23.22;47.95
71795;BME280;59641;45.188;5.712;2022-09-09T01:56:43;99162.25;;;23.25;48.03
71795;BME280;59641;45.188;5.712;2022-09-09T01:59:35;99163.38;;;23.24;48.19
71795;BME280;59641;45.188;5.712;2022-09-09T02:02:11;99151.13;;;23.21;48.12
71795;BME280;59641;45.188;5.712;2022-09-09T02:04:41;99156.91;;;23.20;48.83
71795;BME280;59641;45.188;5.712;2022-09-09T02:07:33;99164.31;;;23.19;48.56
71795;BME280;59641;45.188;5.712;2022-09-09T02:10:18;99168.47;;;23.16;49.13
71795;BME280;59641;45.188;5.712;2022-09-09T02:12:48;99161.69;;;23.14;49.43
71795;BME280;59641;45.188;5.712;2022-09-09T02:18:08;99161.28;;;23.07;49.60
71795;BME280;59641;45.188;5.712;2022-09-09T02:20:37;99159.47;;;23.02;49.83
71795;BME280;59641;45.188;5.712;2022-09-09T02:23:05;99152.69;;;23.00;50.76
71795;BME280;59641;45.188;5.712;2022-09-09T02:25:34;99153.00;;;22.98;50.97
71795;BME280;59641;45.188;5.712;2022-09-09T02:28:03;99157.63;;;22.97;50.56
71795;BME280;59641;45.188;5.712;2022-09-09T02:30:32;99163.66;;;23.00;51.27
71795;BME280;59641;45.188;5.712;2022-09-09T02:33:01;99150.53;;;22.96;51.23
71795;BME280;59641;45.188;5.712;2022-09-09T02:35:30;99155.00;;;22.92;51.27
71795;BME280;59641;45.188;5.712;2022-09-09T02:38:01;99148.53;;;22.88;51.61
71795;BME280;59641;45.188;5.712;2022-09-09T02:40:29;99148.13;;;22.81;51.90
71795;BME280;59641;45.188;5.712;2022-09-09T02:42:55;99152.28;;;22.79;51.92
71795;BME280;59641;45.188;5.712;2022-09-09T02:45:23;99147.91;;;22.77;51.73
71795;BME280;59641;45.188;5.712;2022-09-09T02:53:47;99157.66;;;22.84;51.39
71795;BME280;59641;45.188;5.712;2022-09-09T02:56:17;99159.06;;;22.81;51.56
71795;BME280;59641;45.188;5.712;2022-09-09T02:58:43;99150.97;;;22.76;51.40
71795;BME280;59641;45.188;5.712;2022-09-09T03:01:09;99153.72;;;22.76;51.90
71795;BME280;59641;45.188;5.712;2022-09-09T03:03:36;99157.53;;;22.75;52.13
71795;BME280;59641;45.188;5.712;2022-09-09T03:06:03;99149.66;;;22.73;52.09
71795;BME280;59641;45.188;5.712;2022-09-09T03:08:30;99158.16;;;22.72;51.92
71795;BME280;59641;45.188;5.712;2022-09-09T03:10:58;99161.50;;;22.69;51.62
71795;BME280;59641;45.188;5.712;2022-09-09T03:13:28;99161.81;;;22.67;51.11
71795;BME280;59641;45.188;5.712;2022-09-09T03:15:54;99162.13;;;22.66;51.66
71795;BME280;59641;45.188;5.712;2022-09-09T03:18:19;99162.44;;;22.64;51.51
71795;BME280;59641;45.188;5.712;2022-09-09T03:20:46;99163.03;;;22.61;51.92
71795;BME280;59641;45.188;5.712;2022-09-09T03:23:13;99157.34;;;22.58;51.96
71795;BME280;59641;45.188;5.712;2022-09-09T03:25:39;99161.22;;;22.57;51.37
71795;BME280;59641;45.188;5.712;2022-09-09T03:28:04;99172.16;;;22.57;51.83
71795;BME280;59641;45.188;5.712;2022-09-09T03:30:30;99160.50;;;22.51;51.42
71795;BME280;59641;45.188;5.712;2022-09-09T03:32:55;99163.44;;;22.54;51.15
71795;BME280;59641;45.188;5.712;2022-09-09T03:35:21;99161.63;;;22.50;51.40
71795;BME280;59641;45.188;5.712;2022-09-09T03:37:47;99164.66;;;22.48;51.32
71795;BME280;59641;45.188;5.712;2022-09-09T03:40:13;99175.59;;;22.48;51.06
71795;BME280;59641;45.188;5.712;2022-09-09T03:42:39;99176.00;;;22.42;50.96
71795;BME280;59641;45.188;5.712;2022-09-09T03:45:07;99175.78;;;22.38;51.02
71795;BME280;59641;45.188;5.712;2022-09-09T03:47:34;99179.66;;;22.37;51.26
71795;BME280;59641;45.188;5.712;2022-09-09T03:50:00;99182.66;;;22.36;51.75
71795;BME280;59641;45.188;5.712;2022-09-09T03:52:25;99181.97;;;22.30;51.84
71795;BME280;59641;45.188;5.712;2022-09-09T03:54:52;99186.13;;;22.27;51.39
71795;BME280;59641;45.188;5.712;2022-09-09T03:57:18;99189.44;;;22.24;51.08
71795;BME280;59641;45.188;5.712;2022-09-09T03:59:44;99192.22;;;22.19;50.95
71795;BME280;59641;45.188;5.712;2022-09-09T04:02:09;99193.94;;;22.15;51.20
71795;BME280;59641;45.188;5.712;2022-09-09T04:04:35;99197.28;;;22.12;50.97
71795;BME280;59641;45.188;5.712;2022-09-09T04:07:01;99196.47;;;22.11;51.06
71795;BME280;59641;45.188;5.712;2022-09-09T04:09:27;99193.22;;;22.09;51.01
71795;BME280;59641;45.188;5.712;2022-09-09T04:11:52;99195.44;;;22.07;51.26
71795;BME280;59641;45.188;5.712;2022-09-09T04:14:20;99196.56;;;22.06;50.86
71795;BME280;59641;45.188;5.712;2022-09-09T04:16:45;99188.13;;;22.03;50.84
71795;BME280;59641;45.188;5.712;2022-09-09T04:19:12;99197.38;;;22.07;50.63
71795;BME280;59641;45.188;5.712;2022-09-09T04:21:39;99193.22;;;22.09;50.68
71795;BME280;59641;45.188;5.712;2022-09-09T04:24:06;99192.41;;;22.09;51.00
71795;BME280;59641;45.188;5.712;2022-09-09T04:26:32;99198.97;;;22.08;50.36
71795;BME280;59641;45.188;5.712;2022-09-09T04:28:58;99200.09;;;22.07;50.73
71795;BME280;59641;45.188;5.712;2022-09-09T04:31:23;99199.59;;;22.05;50.95
71795;BME280;59641;45.188;5.712;2022-09-09T04:33:52;99200.72;;;22.04;50.88
71795;BME280;59641;45.188;5.712;2022-09-09T04:36:18;99208.09;;;22.03;51.08
71795;BME280;59641;45.188;5.712;2022-09-09T04:38:45;99201.00;;;22.02;50.62
71795;BME280;59641;45.188;5.712;2022-09-09T04:41:10;99195.63;;;21.97;50.70
71795;BME280;59641;45.188;5.712;2022-09-09T04:43:39;99200.28;;;21.97;50.68
71795;BME280;59641;45.188;5.712;2022-09-09T04:46:05;99211.22;;;21.97;51.12
71795;BME280;59641;45.188;5.712;2022-09-09T04:48:31;99204.72;;;21.92;51.12
71795;BME280;59641;45.188;5.712;2022-09-09T04:51:02;99205.31;;;21.89;51.16
71795;BME280;59641;45.188;5.712;2022-09-09T04:53:28;99208.94;;;21.85;51.17
71795;BME280;59641;45.188;5.712;2022-09-09T04:56:05;99200.22;;;21.83;51.17
71795;BME280;59641;45.188;5.712;2022-09-09T04:58:31;99208.72;;;21.81;51.08
71795;BME280;59641;45.188;5.712;2022-09-09T05:01:11;99209.59;;;21.77;51.07
71795;BME280;59641;45.188;5.712;2022-09-09T05:03:37;99216.97;;;21.76;51.27
71795;BME280;59641;45.188;5.712;2022-09-09T05:08:29;99211.31;;;21.73;51.11
71795;BME280;59641;45.188;5.712;2022-09-09T05:10:54;99214.13;;;21.67;50.98
71795;BME280;59641;45.188;5.712;2022-09-09T05:13:20;99224.31;;;21.62;51.47
71795;BME280;59641;45.188;5.712;2022-09-09T05:15:53;99222.97;;;21.59;51.29
71795;BME280;59641;45.188;5.712;2022-09-09T05:18:18;99227.03;;;21.62;51.35
71795;BME280;59641;45.188;5.712;2022-09-09T05:20:44;99231.97;;;21.60;51.13
71795;BME280;59641;45.188;5.712;2022-09-09T05:23:09;99230.38;;;21.59;50.81
71795;BME280;59641;45.188;5.712;2022-09-09T05:25:38;99233.09;;;21.59;51.06
71795;BME280;59641;45.188;5.712;2022-09-09T05:28:04;99237.53;;;21.55;51.68
71795;BME280;59641;45.188;5.712;2022-09-09T05:30:30;99234.56;;;21.51;51.29
71795;BME280;59641;45.188;5.712;2022-09-09T05:32:56;99238.41;;;21.50;51.73
71795;BME280;59641;45.188;5.712;2022-09-09T05:35:21;99243.38;;;21.48;51.84
71795;BME280;59641;45.188;5.712;2022-09-09T05:37:48;99243.94;;;21.45;51.46
71795;BME280;59641;45.188;5.712;2022-09-09T05:40:13;99247.50;;;21.45;51.69
71795;BME280;59641;45.188;5.712;2022-09-09T05:42:39;99251.56;;;21.48;51.85
71795;BME280;59641;45.188;5.712;2022-09-09T05:45:06;99257.03;;;21.48;51.37
71795;BME280;59641;45.188;5.712;2022-09-09T05:47:33;99253.75;;;21.46;51.19
71795;BME280;59641;45.188;5.712;2022-09-09T05:49:58;99255.63;;;21.51;51.71
71795;BME280;59641;45.188;5.712;2022-09-09T05:52:24;99257.22;;;21.52;51.22
71795;BME280;59641;45.188;5.712;2022-09-09T05:54:51;99258.34;;;21.51;51.25
71795;BME280;59641;45.188;5.712;2022-09-09T05:57:17;99252.88;;;21.51;51.43
71795;BME280;59641;45.188;5.712;2022-09-09T05:59:44;99264.28;;;21.53;51.34
71795;BME280;59641;45.188;5.712;2022-09-09T06:02:10;99261.56;;;21.53;51.75
71795;BME280;59641;45.188;5.712;2022-09-09T06:04:35;99263.50;;;21.52;51.72
71795;BME280;59641;45.188;5.712;2022-09-09T06:07:00;99253.91;;;21.55;51.22
71795;BME280;59641;45.188;5.712;2022-09-09T06:09:26;99263.41;;;21.57;51.53
71795;BME280;59641;45.188;5.712;2022-09-09T06:11:51;99264.53;;;21.56;51.50
71795;BME280;59641;45.188;5.712;2022-09-09T06:14:17;99267.78;;;21.58;51.07
71795;BME280;59641;45.188;5.712;2022-09-09T06:16:46;99264.59;;;21.51;51.19
71795;BME280;59641;45.188;5.712;2022-09-09T06:19:11;99271.69;;;21.52;51.11
71795;BME280;59641;45.188;5.712;2022-09-09T06:21:38;99274.41;;;21.52;51.04
71795;BME280;59641;45.188;5.712;2022-09-09T06:24:04;99276.84;;;21.54;51.50
71795;BME280;59641;45.188;5.712;2022-09-09T06:26:32;99270.28;;;21.55;51.21
71795;BME280;59641;45.188;5.712;2022-09-09T06:28:58;99268.38;;;21.55;51.19
71795;BME280;59641;45.188;5.712;2022-09-09T06:31:27;99268.38;;;21.55;51.39
71795;BME280;59641;45.188;5.712;2022-09-09T06:33:56;99267.88;;;21.53;51.58
71795;BME280;59641;45.188;5.712;2022-09-09T06:36:24;99269.19;;;21.56;51.48
71795;BME280;59641;45.188;5.712;2022-09-09T06:38:50;99266.47;;;21.56;51.58
71795;BME280;59641;45.188;5.712;2022-09-09T06:41:18;99264.53;;;21.56;51.55
71795;BME280;59641;45.188;5.712;2022-09-09T06:43:44;99268.31;;;21.60;51.91
71795;BME280;59641;45.188;5.712;2022-09-09T06:46:13;99284.09;;;21.63;52.06
71795;BME280;59641;45.188;5.712;2022-09-09T06:48:40;99278.91;;;21.62;52.28
71795;BME280;59641;45.188;5.712;2022-09-09T06:51:12;99286.00;;;21.63;52.47
71795;BME280;59641;45.188;5.712;2022-09-09T06:53:40;99288.44;;;21.64;52.21
71795;BME280;59641;45.188;5.712;2022-09-09T06:56:20;99281.34;;;21.63;51.81
71795;BME280;59641;45.188;5.712;2022-09-09T06:58:48;99280.25;;;21.64;52.32
71795;BME280;59641;45.188;5.712;2022-09-09T07:01:33;99283.81;;;21.65;51.69
71795;BME280;59641;45.188;5.712;2022-09-09T07:04:00;99285.13;;;21.67;51.91
71795;BME280;59641;45.188;5.712;2022-09-09T07:06:32;99286.75;;;21.68;52.17
71795;BME280;59641;45.188;5.712;2022-09-09T07:09:05;99280.19;;;21.69;51.82
71795;BME280;59641;45.188;5.712;2022-09-09T07:11:34;99279.88;;;21.71;52.18
71795;BME280;59641;45.188;5.712;2022-09-09T07:14:02;99260.47;;;21.73;52.33
71795;BME280;59641;45.188;5.712;2022-09-09T07:16:28;99267.25;;;21.75;52.23
71795;BME280;59641;45.188;5.712;2022-09-09T07:18:55;99262.59;;;21.76;51.73
71795;BME280;59641;45.188;5.712;2022-09-09T07:21:24;99277.31;;;21.80;51.44
71795;BME280;59641;45.188;5.712;2022-09-09T07:23:51;99274.50;;;21.85;51.92
71795;BME280;59641;45.188;5.712;2022-09-09T07:26:18;99273.88;;;21.88;51.59
71795;BME280;59641;45.188;5.712;2022-09-09T07:28:48;99274.69;;;21.88;51.90
71795;BME280;59641;45.188;5.712;2022-09-09T07:31:21;99275.22;;;21.90;51.62
71795;BME280;59641;45.188;5.712;2022-09-09T07:33:48;99276.03;;;21.91;51.81
71795;BME280;59641;45.188;5.712;2022-09-09T07:36:17;99270.28;;;21.92;51.91
71795;BME280;59641;45.188;5.712;2022-09-09T07:38:48;99270.19;;;21.98;51.75
71795;BME280;59641;45.188;5.712;2022-09-09T07:41:39;99271.75;;;22.04;51.77
71795;BME280;59641;45.188;5.712;2022-09-09T07:44:09;99279.56;;;22.10;51.57
71795;BME280;59641;45.188;5.712;2022-09-09T07:46:36;99283.38;;;22.28;51.65
71795;BME280;59641;45.188;5.712;2022-09-09T07:49:03;99283.53;;;22.37;51.15
71795;BME280;59641;45.188;5.712;2022-09-09T07:51:32;99278.34;;;22.36;51.01
71795;BME280;59641;45.188;5.712;2022-09-09T07:53:59;99270.44;;;22.34;50.82
71795;BME280;59641;45.188;5.712;2022-09-09T07:56:27;99277.22;;;22.37;50.93
71795;BME280;59641;45.188;5.712;2022-09-09T07:58:55;99272.78;;;22.41;50.52
71795;BME280;59641;45.188;5.712;2022-09-09T08:01:25;99269.25;;;22.40;50.25
71795;BME280;59641;45.188;5.712;2022-09-09T08:03:56;99268.13;;;22.41;50.13
71795;BME280;59641;45.188;5.712;2022-09-09T08:06:25;99272.16;;;22.44;50.17
71795;BME280;59641;45.188;5.712;2022-09-09T08:08:52;99268.03;;;22.46;50.63
71795;BME280;59641;45.188;5.712;2022-09-09T08:11:20;99268.97;;;22.55;50.40
71795;BME280;59641;45.188;5.712;2022-09-09T08:13:48;99267.16;;;22.65;50.23
71795;BME280;59641;45.188;5.712;2022-09-09T08:16:17;99267.84;;;22.70;49.23
71795;BME280;59641;45.188;5.712;2022-09-09T08:18:43;99259.25;;;22.77;49.64
71795;BME280;59641;45.188;5.712;2022-09-09T08:21:12;99258.34;;;22.82;49.13
71795;BME280;59641;45.188;5.712;2022-09-09T08:23:42;99257.53;;;22.81;49.23
71795;BME280;59641;45.188;5.712;2022-09-09T08:26:20;99263.13;;;22.90;49.07
71795;BME280;59641;45.188;5.712;2022-09-09T08:28:48;99263.63;;;22.92;47.90
71795;BME280;59641;45.188;5.712;2022-09-09T08:31:22;99275.50;;;23.01;47.91
71795;BME280;59641;45.188;5.712;2022-09-09T08:33:48;99274.91;;;23.04;48.09
71795;BME280;59641;45.188;5.712;2022-09-09T08:36:16;99270.41;;;22.94;47.13
71795;BME280;59641;45.188;5.712;2022-09-09T08:38:43;99266.38;;;23.06;47.59
71795;BME280;59641;45.188;5.712;2022-09-09T08:57:52;99264.69;;;23.60;48.08
71795;BME280;59641;45.188;5.712;2022-09-09T09:00:19;99262.34;;;23.67;48.09
71795;BME280;59641;45.188;5.712;2022-09-09T09:08:50;99260.88;;;24.06;46.98
71795;BME280;59641;45.188;5.712;2022-09-09T09:11:18;99256.44;;;24.19;45.38
71795;BME280;59641;45.188;5.712;2022-09-09T09:14:03;99256.81;;;24.26;41.88
71795;BME280;59641;45.188;5.712;2022-09-09T09:17:02;99258.81;;;24.34;41.21
71795;BME280;59641;45.188;5.712;2022-09-09T09:19:30;99261.41;;;24.39;40.55
71795;BME280;59641;45.188;5.712;2022-09-09T09:24:56;99253.94;;;24.54;38.84
71795;BME280;59641;45.188;5.712;2022-09-09T09:30:16;99248.25;;;25.56;40.35
71795;BME280;59641;45.188;5.712;2022-09-09T09:33:11;99237.34;;;26.47;39.27
71795;BME280;59641;45.188;5.712;2022-09-09T09:35:33;99228.00;;;27.16;34.05
71795;BME280;59641;45.188;5.712;2022-09-09T09:37:59;99222.13;;;27.26;33.67
71795;BME280;59641;45.188;5.712;2022-09-09T09:40:26;99229.03;;;27.74;34.42
71795;BME280;59641;45.188;5.712;2022-09-09T09:42:54;99227.88;;;27.96;34.34
71795;BME280;59641;45.188;5.712;2022-09-09T09:45:46;99232.38;;;27.80;32.09
71795;BME280;59641;45.188;5.712;2022-09-09T09:48:13;99233.06;;;27.56;33.14
71795;BME280;59641;45.188;5.712;2022-09-09T09:50:56;99230.22;;;27.23;35.24
71795;BME280;59641;45.188;5.712;2022-09-09T09:53:26;99240.38;;;27.01;33.83
71795;BME280;59641;45.188;5.712;2022-09-09T09:55:56;99242.00;;;26.72;34.42
71795;BME280;59641;45.188;5.712;2022-09-09T09:58:23;99233.63;;;26.51;34.04
71795;BME280;59641;45.188;5.712;2022-09-09T10:00:52;99237.00;;;26.57;35.04
71795;BME280;59641;45.188;5.712;2022-09-09T10:05:46;99232.31;;;26.58;34.67
71795;BME280;59641;45.188;5.712;2022-09-09T10:08:16;99215.34;;;26.47;34.74
71795;BME280;59641;45.188;5.712;2022-09-09T10:13:32;99212.09;;;26.45;35.47
71795;BME280;59641;45.188;5.712;2022-09-09T10:19:13;99217.94;;;26.43;35.32
71795;BME280;59641;45.188;5.712;2022-09-09T10:24:43;99212.78;;;26.42;36.31
71795;BME280;59641;45.188;5.712;2022-09-09T10:30:02;99214.41;;;26.34;36.03
71795;BME280;59641;45.188;5.712;2022-09-09T10:33:03;99221.22;;;26.28;35.82
71795;BME280;59641;45.188;5.712;2022-09-09T10:38:16;99214.91;;;26.27;36.49
71795;BME280;59641;45.188;5.712;2022-09-09T10:51:18;99210.22;;;26.37;35.45
71795;BME280;59641;45.188;5.712;2022-09-09T10:53:53;99213.28;;;26.35;36.01
71795;BME280;59641;45.188;5.712;2022-09-09T10:56:26;99211.81;;;26.38;36.13
71795;BME280;59641;45.188;5.712;2022-09-09T10:59:02;99202.44;;;26.39;35.49
71795;BME280;59641;45.188;5.712;2022-09-09T11:01:37;99197.06;;;26.42;36.16
71795;BME280;59641;45.188;5.712;2022-09-09T11:04:17;99201.09;;;26.45;35.66
71795;BME280;59641;45.188;5.712;2022-09-09T11:06:49;99201.72;;;26.50;35.71
71795;BME280;59641;45.188;5.712;2022-09-09T11:09:28;99205.47;;;26.54;35.20
71795;BME280;59641;45.188;5.712;2022-09-09T11:11:57;99192.31;;;26.60;35.35
71795;BME280;59641;45.188;5.712;2022-09-09T11:14:37;99195.56;;;26.62;35.17
71795;BME280;59641;45.188;5.712;2022-09-09T11:17:12;99192.47;;;26.64;34.98
71795;BME280;59641;45.188;5.712;2022-09-09T11:19:39;99196.19;;;26.68;35.44
71795;BME280;59641;45.188;5.712;2022-09-09T11:22:14;99191.81;;;26.67;35.10
71795;BME280;59641;45.188;5.712;2022-09-09T11:24:45;99190.22;;;26.66;34.62
71795;BME280;59641;45.188;5.712;2022-09-09T11:27:17;99185.66;;;26.70;35.45
71795;BME280;59641;45.188;5.712;2022-09-09T11:33:03;99186.09;;;26.72;35.42
71795;BME280;59641;45.188;5.712;2022-09-09T11:36:04;99185.00;;;26.73;34.85
71795;BME280;59641;45.188;5.712;2022-09-09T11:39:02;99186.47;;;26.70;34.26
71795;BME280;59641;45.188;5.712;2022-09-09T11:41:35;99188.53;;;26.73;35.09
71795;BME280;59641;45.188;5.712;2022-09-09T11:44:13;99191.59;;;26.81;35.17
71795;BME280;59641;45.188;5.712;2022-09-09T11:46:46;99188.03;;;26.80;35.22
71795;BME280;59641;45.188;5.712;2022-09-09T11:49:40;99195.28;;;26.85;35.07
71795;BME280;59641;45.188;5.712;2022-09-09T11:52:25;99199.31;;;26.87;34.40
71795;BME280;59641;45.188;5.712;2022-09-09T11:54:54;99200.25;;;26.91;34.62
71795;BME280;59641;45.188;5.712;2022-09-09T11:57:35;99197.84;;;26.90;34.08
71795;BME280;59641;45.188;5.712;2022-09-09T12:00:02;99199.97;;;26.84;33.49
71795;BME280;59641;45.188;5.712;2022-09-09T12:02:28;99198.88;;;26.76;33.81
71795;BME280;59641;45.188;5.712;2022-09-09T12:05:07;99197.88;;;26.81;33.96
71795;BME280;59641;45.188;5.712;2022-09-09T12:08:02;99198.25;;;26.80;33.61
71795;BME280;59641;45.188;5.712;2022-09-09T12:10:30;99197.88;;;26.81;34.01
71795;BME280;59641;45.188;5.712;2022-09-09T12:13:18;99195.28;;;26.85;34.78
71795;BME280;59641;45.188;5.712;2022-09-09T12:16:02;99191.38;;;26.86;34.01
71795;BME280;59641;45.188;5.712;2022-09-09T12:18:36;99194.63;;;26.88;34.04
71795;BME280;59641;45.188;5.712;2022-09-09T12:21:24;99188.59;;;26.94;34.16
71795;BME280;59641;45.188;5.712;2022-09-09T12:23:54;99192.63;;;26.97;32.69
71795;BME280;59641;45.188;5.712;2022-09-09T12:34:19;99189.00;;;27.05;32.89
71795;BME280;59641;45.188;5.712;2022-09-09T12:36:57;99175.22;;;27.05;31.39
71795;BME280;59641;45.188;5.712;2022-09-09T12:39:33;99176.66;;;27.11;32.57
71795;BME280;59641;45.188;5.712;2022-09-09T12:42:00;99179.69;;;27.18;31.70
71795;BME280;59641;45.188;5.712;2022-09-09T12:44:27;99175.81;;;27.19;31.72
71795;BME280;59641;45.188;5.712;2022-09-09T12:46:58;99170.94;;;27.25;31.82
71795;BME280;59641;45.188;5.712;2022-09-09T12:49:35;99174.59;;;27.29;30.24
71795;BME280;59641;45.188;5.712;2022-09-09T12:52:12;99174.41;;;27.34;31.87
71795;BME280;59641;45.188;5.712;2022-09-09T12:54:44;99170.16;;;27.37;30.49
71795;BME280;59641;45.188;5.712;2022-09-09T12:57:13;99165.34;;;27.34;29.33
71795;BME280;59641;45.188;5.712;2022-09-09T12:59:41;99169.03;;;27.38;29.65
71795;BME280;59641;45.188;5.712;2022-09-09T13:02:22;99155.75;;;27.40;29.36
71795;BME280;59641;45.188;5.712;2022-09-09T13:04:49;99160.16;;;27.32;28.56
71795;BME280;59641;45.188;5.712;2022-09-09T13:07:17;99161.09;;;27.36;28.72
71795;BME280;59641;45.188;5.712;2022-09-09T13:09:44;99170.63;;;27.39;29.05
71795;BME280;59641;45.188;5.712;2022-09-09T13:12:22;99161.56;;;27.38;29.34
71795;BME280;59641;45.188;5.712;2022-09-09T13:14:50;99156.22;;;27.42;29.41
71795;BME280;59641;45.188;5.712;2022-09-09T13:17:24;99162.31;;;27.48;29.17
71795;BME280;59641;45.188;5.712;2022-09-09T13:19:52;99156.59;;;27.53;28.89
71795;BME280;59641;45.188;5.712;2022-09-09T13:22:46;99165.91;;;27.60;29.95
71795;BME280;59641;45.188;5.712;2022-09-09T13:30:28;99162.78;;;27.50;28.07
71795;BME280;59641;45.188;5.712;2022-09-09T13:35:47;99167.28;;;27.54;29.51
71795;BME280;59641;45.188;5.712;2022-09-09T13:38:15;99158.19;;;27.54;28.92
71795;BME280;59641;45.188;5.712;2022-09-09T13:40:52;99155.91;;;27.56;30.14
71795;BME280;59641;45.188;5.712;2022-09-09T13:43:21;99159.13;;;27.58;28.71
71795;BME280;59641;45.188;5.712;2022-09-09T13:46:23;99150.75;;;27.54;28.90
71795;BME280;59641;45.188;5.712;2022-09-09T13:51:51;99153.75;;;27.61;29.03
71795;BME280;59641;45.188;5.712;2022-09-09T13:54:20;99154.22;;;27.63;28.80
71795;BME280;59641;45.188;5.712;2022-09-09T13:56:46;99157.56;;;27.69;29.36
71795;BME280;59641;45.188;5.712;2022-09-09T13:59:15;99151.72;;;27.71;29.08
71795;BME280;59641;45.188;5.712;2022-09-09T14:01:41;99147.03;;;27.71;28.32
71795;BME280;59641;45.188;5.712;2022-09-09T14:04:07;99156.56;;;27.74;28.71
71795;BME280;59641;45.188;5.712;2022-09-09T14:06:34;99154.47;;;27.71;27.79
71795;BME280;59641;45.188;5.712;2022-09-09T14:09:03;99155.41;;;27.75;28.35
71795;BME280;59641;45.188;5.712;2022-09-09T14:11:29;99154.47;;;27.71;27.14
71795;BME280;59641;45.188;5.712;2022-09-09T14:13:54;99156.88;;;27.72;28.56
71795;BME280;59641;45.188;5.712;2022-09-09T14:16:21;99153.34;;;27.72;28.13
71795;BME280;59641;45.188;5.712;2022-09-09T14:18:46;99162.31;;;27.81;28.39
71795;BME280;59641;45.188;5.712;2022-09-09T14:21:12;99161.16;;;27.82;26.81
71795;BME280;59641;45.188;5.712;2022-09-09T14:23:38;99166.69;;;27.82;27.25
71795;BME280;59641;45.188;5.712;2022-09-09T14:26:08;99158.63;;;27.77;26.17
71795;BME280;59641;45.188;5.712;2022-09-09T14:28:34;99155.66;;;27.82;27.79
71795;BME280;59641;45.188;5.712;2022-09-09T14:31:01;99153.22;;;27.80;27.51
71795;BME280;59641;45.188;5.712;2022-09-09T14:33:27;99154.06;;;27.81;26.97
71795;BME280;59641;45.188;5.712;2022-09-09T14:35:57;99151.81;;;27.83;26.72
71795;BME280;59641;45.188;5.712;2022-09-09T14:38:23;99142.69;;;27.82;27.21
71795;BME280;59641;45.188;5.712;2022-09-09T14:40:49;99150.31;;;27.86;26.85
71795;BME280;59641;45.188;5.712;2022-09-09T14:43:15;99151.69;;;27.92;25.29
71795;BME280;59641;45.188;5.712;2022-09-09T14:45:40;99157.69;;;27.94;26.06
71795;BME280;59641;45.188;5.712;2022-09-09T14:48:05;99151.38;;;27.93;25.30
71795;BME280;59641;45.188;5.712;2022-09-09T14:50:31;99151.84;;;27.95;25.03
71795;BME280;59641;45.188;5.712;2022-09-09T14:52:57;99140.81;;;27.95;25.12
71795;BME280;59641;45.188;5.712;2022-09-09T14:55:22;99142.28;;;27.93;25.21
71795;BME280;59641;45.188;5.712;2022-09-09T14:57:48;99146.19;;;27.92;25.04
71795;BME280;59641;45.188;5.712;2022-09-09T15:00:13;99145.38;;;27.91;25.45
71795;BME280;59641;45.188;5.712;2022-09-09T15:02:39;99142.28;;;27.93;26.50
71795;BME280;59641;45.188;5.712;2022-09-09T15:05:06;99143.41;;;27.92;24.75
71795;BME280;59641;45.188;5.712;2022-09-09T15:07:31;99147.91;;;27.96;25.75
71795;BME280;59641;45.188;5.712;2022-09-09T15:09:57;99147.91;;;27.96;25.27
71795;BME280;59641;45.188;5.712;2022-09-09T15:12:23;99143.66;;;27.99;25.03
71795;BME280;59641;45.188;5.712;2022-09-09T15:14:49;99141.06;;;28.02;24.59
71795;BME280;59641;45.188;5.712;2022-09-09T15:17:16;99146.19;;;28.04;25.59
71795;BME280;59641;45.188;5.712;2022-09-09T15:19:41;99147.84;;;28.05;25.74
71795;BME280;59641;45.188;5.712;2022-09-09T15:22:08;99150.59;;;28.05;25.24